This is the latest recevied weather packets stored in our database for station/object N5LSN. If no packets are shown the sender has not sent any weather packets the latest 10 day(s).
| Time | Temp. | Humidity | Pressure | Rain* | Wind** | Luminosity | Snow |
|---|---|---|---|---|---|---|---|
| 1777840907 | 25.56° C | 45% | 1017.2 hPa | 0 mm | - | 722 W/m² | - |
| 1777840604 | 25.56° C | 45% | 1017.3 hPa | 0 mm | - | 732 W/m² | - |
| 1777840302 | 25.56° C | 44% | 1017.4 hPa | 0 mm | - | 743 W/m² | - |
| 1777839999 | 26.11° C | 42% | 1017.4 hPa | 0 mm | - | 759 W/m² | - |
| 1777839697 | 26.11° C | 47% | 1017.8 hPa | 0 mm | - | 770 W/m² | - |
| 1777839395 | 25° C | 45% | 1018 hPa | 0 mm | - | 788 W/m² | - |
| 1777839092 | 25° C | 43% | 1017.7 hPa | 0 mm | - | 797 W/m² | - |
| 1777838788 | 25.56° C | 45% | 1018.1 hPa | 0 mm | - | 815 W/m² | - |
| 1777838485 | 25° C | 44% | 1018.2 hPa | 0 mm | - | 824 W/m² | - |
| 1777838182 | 25.56° C | 46% | 1018.3 hPa | 0 mm | - | 835 W/m² | - |
| 1777837878 | 24.44° C | 44% | 1018.3 hPa | 0 mm | - | 850 W/m² | - |
| 1777837576 | 25° C | 42% | 1018.5 hPa | 0 mm | - | 859 W/m² | - |
| 1777837271 | 25° C | 44% | 1018.6 hPa | 0 mm | - | 865 W/m² | - |
| 1777836968 | 25° C | 45% | 1018.6 hPa | 0 mm | - | 876 W/m² | - |
| 1777836663 | 25° C | 42% | 1018.6 hPa | 0 mm | - | 887 W/m² | - |
| 1777836359 | 24.44° C | 43% | 1018.8 hPa | 0 mm | - | 901 W/m² | - |
| 1777836055 | 25.56° C | 42% | 1019 hPa | 0 mm | - | 862 W/m² | - |
| 1777835752 | 24.44° C | 43% | 1018.9 hPa | 0 mm | - | 913 W/m² | - |
| 1777835448 | 25° C | 43% | 1019.1 hPa | 0 mm | - | 920 W/m² | - |
| 1777835139 | 24.44° C | 43% | 1019.1 hPa | 0 mm | - | 927 W/m² | - |
| 1777834836 | 23.89° C | 44% | 1019.2 hPa | 0 mm | - | 932 W/m² | - |
| 1777834533 | 23.89° C | 44% | 1019.3 hPa | 0 mm | - | 937 W/m² | - |
| 1777834227 | 23.89° C | 44% | 1019.4 hPa | 0 mm | - | 943 W/m² | - |
| 1777833924 | 23.89° C | 43% | 1019.7 hPa | 0 mm | - | 946 W/m² | - |
| 1777833620 | 23.89° C | 44% | 1019.8 hPa | 0 mm | - | 946 W/m² | - |
* Rain latest hour (hover to see other rain measurements)
** Current wind speed in m/s (hover to see current wind gust speed)